createdAt,value
2022-08-17T00:03:20.332Z,38.15
2022-08-17T00:08:32.780Z,43.03
2022-08-17T00:13:38.825Z,39.00
2022-08-17T00:19:01.382Z,40.35
2022-08-17T00:24:09.381Z,38.85
2022-08-17T00:29:17.865Z,38.78
2022-08-17T00:34:25.452Z,39.45
2022-08-17T00:39:34.673Z,37.65
2022-08-17T00:44:38.428Z,41.30
2022-08-17T00:49:43.816Z,37.65
2022-08-17T00:54:52.876Z,37.72
2022-08-17T01:00:03.248Z,40.30
2022-08-17T01:05:13.549Z,38.30
2022-08-17T01:10:59.497Z,33.10
2022-08-17T01:15:54.109Z,29.08
2022-08-17T01:21:03.146Z,28.05
2022-08-17T01:26:10.156Z,31.87
2022-08-17T01:31:14.287Z,32.95
2022-08-17T01:36:21.082Z,34.55
2022-08-17T01:41:26.275Z,33.17
2022-08-17T01:46:33.426Z,42.38
2022-08-17T01:51:38.760Z,35.95
2022-08-17T01:56:47.778Z,42.13
2022-08-17T02:01:52.892Z,32.55
2022-08-17T02:06:56.691Z,35.05
2022-08-17T02:12:37.322Z,38.13
2022-08-17T02:22:33.447Z,33.53
2022-08-17T02:27:39.837Z,36.03
2022-08-17T02:32:43.571Z,37.17
2022-08-17T02:37:48.947Z,41.37
2022-08-17T02:43:02.515Z,34.47
2022-08-17T02:48:06.902Z,35.55
2022-08-17T02:53:10.643Z,32.13
2022-08-17T02:58:17.529Z,32.10
2022-08-17T03:03:41.177Z,36.55
2022-08-17T03:08:44.886Z,36.28
2022-08-17T03:13:50.008Z,38.38
2022-08-17T03:18:55.159Z,32.60
2022-08-17T03:23:58.877Z,39.05
2022-08-17T03:29:04.220Z,36.38
2022-08-17T03:34:07.972Z,35.30
2022-08-17T03:39:11.763Z,32.33
2022-08-17T03:44:17.503Z,29.05
2022-08-17T03:49:38.387Z,31.05
2022-08-17T03:55:00.727Z,33.47
2022-08-17T04:00:08.564Z,29.67
2022-08-17T04:05:16.025Z,35.58
2022-08-17T04:10:21.831Z,31.15
2022-08-17T04:15:30.938Z,32.03
2022-08-17T04:20:36.269Z,29.67
2022-08-17T04:25:43.899Z,28.20
2022-08-17T04:30:49.425Z,32.03
2022-08-17T04:35:56.520Z,26.80
2022-08-17T04:41:19.108Z,32.17
2022-08-17T04:46:26.523Z,31.52
2022-08-17T04:51:32.698Z,34.87
2022-08-17T04:56:37.302Z,33.72
2022-08-17T05:01:45.453Z,34.75
2022-08-17T05:11:55.295Z,32.58
2022-08-17T05:17:01.443Z,39.60
2022-08-17T05:22:06.168Z,32.85
2022-08-17T05:27:09.838Z,37.80
2022-08-17T05:37:43.288Z,30.60
2022-08-17T05:42:47.074Z,36.58
2022-08-17T05:47:52.391Z,29.70
2022-08-17T05:53:04.455Z,39.33
2022-08-17T05:58:21.245Z,30.17
2022-08-17T06:03:40.121Z,31.10
2022-08-17T06:08:51.513Z,32.63
2022-08-17T06:14:11.078Z,32.65
2022-08-17T06:19:19.877Z,40.88
2022-08-17T06:24:34.207Z,37.60
2022-08-17T06:29:45.097Z,29.70
2022-08-17T06:34:50.364Z,36.05
2022-08-17T06:39:59.909Z,38.90
2022-08-17T06:45:08.497Z,25.60
2022-08-17T06:50:20.459Z,22.42
2022-08-17T06:55:33.187Z,26.60
2022-08-17T07:00:43.491Z,21.90
2022-08-17T07:05:53.065Z,28.05
2022-08-17T07:11:03.306Z,30.23
2022-08-17T07:16:25.840Z,26.75
2022-08-17T07:21:44.940Z,19.85
2022-08-17T07:26:49.612Z,22.48
2022-08-17T07:31:56.211Z,17.73
2022-08-17T07:37:05.418Z,24.23
2022-08-17T07:47:35.576Z,22.62
2022-08-17T07:52:50.751Z,17.87
2022-08-17T07:57:57.388Z,14.77
2022-08-17T08:03:12.302Z,12.70
2022-08-17T08:08:29.552Z,13.85
2022-08-17T08:13:33.617Z,12.87
2022-08-17T08:18:55.606Z,11.98
2022-08-17T08:24:16.079Z,17.80
2022-08-17T08:29:29.301Z,11.30
2022-08-17T08:34:58.894Z,13.90
2022-08-17T08:40:21.536Z,9.43
2022-08-17T08:45:31.885Z,11.65
2022-08-17T08:50:46.607Z,13.05
2022-08-17T08:55:56.405Z,11.95
2022-08-17T09:01:02.689Z,10.68
2022-08-17T09:06:33.600Z,12.65
2022-08-17T09:12:02.759Z,9.48
2022-08-17T09:17:13.803Z,11.23
2022-08-17T09:22:31.341Z,10.90
2022-08-17T09:27:47.556Z,9.20
2022-08-17T09:32:55.577Z,10.77
2022-08-17T09:43:17.976Z,12.82
2022-08-17T09:48:27.559Z,9.77
2022-08-17T09:53:32.214Z,11.52
2022-08-17T09:58:51.299Z,12.23
2022-08-17T10:04:11.377Z,13.68
2022-08-17T10:09:23.102Z,12.48
2022-08-17T10:14:37.653Z,13.65
2022-08-17T10:19:54.971Z,21.02
2022-08-17T10:25:22.261Z,18.95
2022-08-17T10:30:33.845Z,21.52
2022-08-17T10:35:48.721Z,24.20
2022-08-17T10:40:58.410Z,22.27
2022-08-17T10:46:30.394Z,22.92
2022-08-17T10:51:38.871Z,22.23
2022-08-17T10:56:52.276Z,25.90
2022-08-17T11:02:12.248Z,25.80
2022-08-17T11:07:27.924Z,27.05
2022-08-17T11:12:39.312Z,23.92
2022-08-17T11:18:14.170Z,23.12
2022-08-17T11:23:33.598Z,24.52
2022-08-17T11:28:48.772Z,24.23
2022-08-17T11:34:02.285Z,24.08
2022-08-17T11:39:18.572Z,25.52
2022-08-17T11:44:37.779Z,25.58
2022-08-17T11:50:19.029Z,25.58
2022-08-17T11:56:00.021Z,27.40
2022-08-17T12:01:06.019Z,26.30
2022-08-17T12:06:22.022Z,23.23
2022-08-17T12:11:58.683Z,23.67
2022-08-17T12:17:04.046Z,23.70
2022-08-17T12:22:18.868Z,24.00
2022-08-17T12:27:47.673Z,25.70
2022-08-17T12:32:51.278Z,24.20
2022-08-17T12:37:58.201Z,22.90
2022-08-17T12:43:05.347Z,21.25
2022-08-17T12:48:12.398Z,26.77
2022-08-17T12:53:22.530Z,23.77
2022-08-17T12:58:33.706Z,22.40
2022-08-17T13:03:41.697Z,22.27
2022-08-17T13:08:49.023Z,22.95
2022-08-17T13:13:56.015Z,23.57
2022-08-17T13:19:08.700Z,25.27
2022-08-17T13:24:20.463Z,25.62
2022-08-17T13:29:27.461Z,24.65
2022-08-17T13:35:11.832Z,23.17
2022-08-17T13:40:31.269Z,24.15
2022-08-17T13:45:38.885Z,23.70
2022-08-17T13:55:52.717Z,22.80
2022-08-17T14:00:56.915Z,22.85
2022-08-17T14:06:00.711Z,24.27
2022-08-17T14:11:05.894Z,19.42
2022-08-17T14:16:09.685Z,19.77
2022-08-17T14:21:14.096Z,20.58
2022-08-17T14:26:19.283Z,22.92
2022-08-17T14:31:23.121Z,21.15
2022-08-17T14:36:27.119Z,20.62
2022-08-17T14:41:32.487Z,23.55
2022-08-17T14:46:36.935Z,22.83
2022-08-17T14:51:43.815Z,21.10
2022-08-17T14:56:49.643Z,23.98
2022-08-17T15:02:04.817Z,26.20
2022-08-17T15:07:09.001Z,25.98
2022-08-17T15:12:18.988Z,25.30
2022-08-17T15:17:23.334Z,26.70
2022-08-17T15:22:28.085Z,25.05
2022-08-17T15:27:34.744Z,35.00
2022-08-17T15:32:40.596Z,25.62
2022-08-17T15:37:45.087Z,24.08
2022-08-17T15:42:51.086Z,27.20
2022-08-17T15:47:55.253Z,24.75
2022-08-17T15:53:00.541Z,25.95
2022-08-17T15:58:06.373Z,28.02
2022-08-17T16:03:45.925Z,26.37
2022-08-17T16:08:34.279Z,27.65
2022-08-17T16:13:40.663Z,27.67
2022-08-17T16:18:44.837Z,31.23
2022-08-17T16:23:49.584Z,30.27
2022-08-17T16:28:54.804Z,27.35
2022-08-17T16:34:15.848Z,29.83
2022-08-17T16:39:22.214Z,25.30
2022-08-17T16:44:28.992Z,28.25
2022-08-17T16:49:37.164Z,27.90
2022-08-17T16:54:46.683Z,26.30
2022-08-17T16:59:53.112Z,30.60
2022-08-17T17:05:03.877Z,29.48
2022-08-17T17:10:11.342Z,30.33
2022-08-17T17:15:21.987Z,31.87
2022-08-17T17:20:35.429Z,31.52
2022-08-17T17:25:48.840Z,29.33
2022-08-17T17:31:02.319Z,31.52
2022-08-17T17:36:09.780Z,29.02
2022-08-17T17:41:26.514Z,32.53
2022-08-17T17:46:37.819Z,32.10
2022-08-17T17:52:05.915Z,32.25
2022-08-17T17:57:22.359Z,32.10
2022-08-17T18:02:52.572Z,32.08
2022-08-17T18:08:11.091Z,34.63
2022-08-17T18:13:26.704Z,35.60
2022-08-17T18:18:44.609Z,30.98
2022-08-17T18:23:52.947Z,32.37
2022-08-17T18:28:56.918Z,32.83
2022-08-17T18:34:43.772Z,28.62
2022-08-17T18:39:46.418Z,31.45
2022-08-17T18:44:54.760Z,32.70
2022-08-17T18:50:24.233Z,32.33
2022-08-17T18:55:30.265Z,31.65
2022-08-17T19:00:38.335Z,36.78
2022-08-17T19:05:43.918Z,36.63
2022-08-17T19:10:51.405Z,35.78
2022-08-17T19:16:12.181Z,35.47
2022-08-17T19:21:22.578Z,42.62
2022-08-17T19:26:53.883Z,46.83
2022-08-17T19:31:55.193Z,41.30
2022-08-17T19:37:03.516Z,52.30
2022-08-17T19:42:17.276Z,43.22
2022-08-17T19:47:53.352Z,41.75
2022-08-17T19:53:00.291Z,43.10
2022-08-17T19:58:12.148Z,42.92
2022-08-17T20:03:26.680Z,42.08
2022-08-17T20:08:35.588Z,48.28
2022-08-17T20:13:43.977Z,49.88
2022-08-17T20:18:56.339Z,58.03
2022-08-17T20:24:06.434Z,49.33
2022-08-17T20:29:37.686Z,54.95
2022-08-17T20:34:48.314Z,49.30
2022-08-17T20:40:21.227Z,51.80
2022-08-17T20:45:49.453Z,40.20
2022-08-17T20:50:58.949Z,39.50
2022-08-17T20:56:03.029Z,41.50
2022-08-17T21:01:20.126Z,38.10
2022-08-17T21:06:26.269Z,38.20
2022-08-17T21:12:04.527Z,46.37
2022-08-17T21:17:38.379Z,60.10
2022-08-17T21:22:56.475Z,62.80
2022-08-17T21:28:15.679Z,71.03
2022-08-17T21:33:27.935Z,64.47
2022-08-17T21:38:37.248Z,61.95
2022-08-17T21:43:48.951Z,54.05
2022-08-17T21:48:59.219Z,62.35
2022-08-17T21:54:14.256Z,68.03
2022-08-17T21:59:27.254Z,61.20
2022-08-17T22:04:34.220Z,71.00
2022-08-17T22:09:44.838Z,59.53
2022-08-17T22:15:00.436Z,63.38
2022-08-17T22:20:14.254Z,49.60
2022-08-17T22:25:22.308Z,53.85
2022-08-17T22:30:33.495Z,45.85
2022-08-17T22:35:42.712Z,44.15
2022-08-17T22:40:49.738Z,42.83
2022-08-17T22:46:00.352Z,41.42
2022-08-17T22:51:12.890Z,39.47
2022-08-17T22:56:37.080Z,35.45
2022-08-17T23:01:41.876Z,33.25
2022-08-17T23:06:51.469Z,31.52
2022-08-17T23:11:58.753Z,30.37
2022-08-17T23:17:02.623Z,35.30
2022-08-17T23:22:09.888Z,28.15
2022-08-17T23:27:13.999Z,27.83
2022-08-17T23:32:19.572Z,30.25
2022-08-17T23:37:27.069Z,25.58
2022-08-17T23:42:30.863Z,26.63
2022-08-17T23:47:35.544Z,23.90
2022-08-17T23:52:41.391Z,24.83
2022-08-17T23:57:46.653Z,25.95
